Time;durP1;ratioP1;P1;durP2;ratioP2;P2;SDS_P1;SDS_P2;PMS_P1;PMS_P2;Temp;Humidity;BMP_temperature;BMP_pressure;BME280_temperature;BME280_humidity;BME280_pressure;Samples;Min_cycle;Max_cycle;Signal;HPM_P1;HPM_P2
2022/01/23 00:00:05;;;;;;;17.17;13.33;;;6.50;99.90;;;;;;10297525;28;20698;-74
2022/01/23 00:05:07;;;;;;;21.60;15.17;;;6.40;99.90;;;;;;10289629;28;20233;-74
2022/01/23 00:10:11;;;;;;;20.20;13.30;;;6.50;99.90;;;;;;10310324;28;20285;-74
2022/01/23 00:20:31;;;;;;;21.37;14.87;;;6.40;99.90;;;;;;10303378;28;20219;-74
2022/01/23 00:30:54;;;;;;;18.33;14.00;;;6.40;99.90;;;;;;10312229;28;20268;-74
2022/01/23 00:35:55;;;;;;;18.20;13.80;;;6.40;99.90;;;;;;10318169;28;20689;-75
2022/01/23 00:40:58;;;;;;;20.87;14.27;;;6.40;99.90;;;;;;10302765;28;20305;-74
2022/01/23 00:51:08;;;;;;;18.70;14.17;;;6.40;99.90;;;;;;10305691;28;20229;-74
2022/01/23 00:56:09;;;;;;;18.90;14.13;;;6.40;99.90;;;;;;10320439;28;20248;-75
2022/01/23 01:01:10;;;;;;;20.70;13.80;;;6.40;99.90;;;;;;10315727;28;20221;-75
2022/01/23 01:06:11;;;;;;;18.63;13.63;;;6.40;99.90;;;;;;10313382;28;20247;-75
2022/01/23 01:16:51;;;;;;;20.40;14.20;;;6.40;99.90;;;;;;10314089;28;20697;-76
2022/01/23 01:37:46;;;;;;;20.30;15.57;;;6.40;99.90;;;;;;10274296;28;20271;-75
2022/01/23 01:42:47;;;;;;;20.90;15.57;;;6.40;99.90;;;;;;10295171;28;20789;-75
2022/01/23 01:47:52;;;;;;;20.53;13.97;;;6.40;99.90;;;;;;10308310;28;20233;-76
2022/01/23 01:52:53;;;;;;;18.30;13.87;;;6.40;99.90;;;;;;10309157;28;20841;-75
2022/01/23 01:58:01;;;;;;;18.80;14.30;;;6.40;99.90;;;;;;10309415;28;20332;-75
2022/01/23 02:24:36;;;;;;;21.00;16.57;;;6.20;99.90;;;;;;10305307;28;20238;-76
2022/01/23 02:55:38;;;;;;;21.67;17.03;;;6.30;99.90;;;;;;10312852;28;20214;-75
2022/01/23 03:00:51;;;;;;;27.27;18.47;;;6.30;99.90;;;;;;10303544;28;20226;-75
2022/01/23 03:06:18;;;;;;;25.47;17.90;;;6.20;99.90;;;;;;10314091;28;20214;-74
2022/01/23 03:32:21;;;;;;;25.83;19.37;;;6.20;99.90;;;;;;10305018;28;20277;-75
2022/01/23 03:37:21;;;;;;;29.97;21.17;;;6.20;99.90;;;;;;10308803;28;20883;-77
2022/01/23 03:42:24;;;;;;;28.30;19.97;;;6.20;99.90;;;;;;10293023;28;20317;-74
2022/01/23 03:47:53;;;;;;;25.93;20.23;;;6.20;99.90;;;;;;10303023;28;20257;-74
2022/01/23 03:52:47;;;;;;;27.43;19.67;;;6.20;99.90;;;;;;10309538;28;20229;-75
2022/01/23 03:57:48;;;;;;;28.80;20.37;;;6.20;99.90;;;;;;10295297;28;20710;-75
2022/01/23 04:02:50;;;;;;;26.37;20.37;;;6.20;99.90;;;;;;10305360;28;20261;-75
2022/01/23 04:07:51;;;;;;;27.30;19.40;;;6.10;99.90;;;;;;10299870;28;20266;-74
2022/01/23 04:12:56;;;;;;;29.93;20.07;;;6.20;99.90;;;;;;10294709;28;20233;-74
2022/01/23 04:19:04;;;;;;;30.20;19.83;;;6.20;99.90;;;;;;10313113;28;20222;-75
2022/01/23 05:01:05;;;;;;;28.33;19.83;;;6.10;99.90;;;;;;10250851;28;20222;-74
2022/01/23 05:06:08;;;;;;;29.23;20.07;;;6.10;99.90;;;;;;10317894;28;20456;-75
2022/01/23 05:11:11;;;;;;;28.57;20.53;;;6.10;99.90;;;;;;10313636;28;20257;-75
2022/01/23 05:16:12;;;;;;;28.40;20.87;;;6.10;99.90;;;;;;10309303;28;20303;-75
2022/01/23 05:26:39;;;;;;;24.67;19.10;;;6.00;99.90;;;;;;10306490;28;20230;-75
2022/01/23 05:31:41;;;;;;;27.47;20.00;;;6.00;99.90;;;;;;10295205;28;20234;-74
2022/01/23 05:36:43;;;;;;;28.07;20.37;;;6.00;99.90;;;;;;10291585;28;20276;-75
2022/01/23 05:41:43;;;;;;;29.37;20.97;;;6.00;99.90;;;;;;10311161;28;20222;-74
2022/01/23 05:46:47;;;;;;;31.13;20.80;;;6.00;99.90;;;;;;10308347;28;20260;-75
2022/01/23 05:51:48;;;;;;;30.50;21.00;;;6.00;99.90;;;;;;10301709;28;20365;-75
2022/01/23 05:56:49;;;;;;;29.07;20.50;;;6.00;99.90;;;;;;10291393;28;20222;-75
2022/01/23 06:01:54;;;;;;;28.57;20.83;;;6.10;99.90;;;;;;10287258;28;20221;-74
2022/01/23 06:06:56;;;;;;;28.37;20.03;;;6.00;99.90;;;;;;10292204;28;20809;-74
2022/01/23 06:11:59;;;;;;;29.50;21.50;;;6.00;99.90;;;;;;10288277;28;20250;-75
2022/01/23 06:17:00;;;;;;;27.87;20.97;;;6.00;99.90;;;;;;10291240;28;20926;-75
2022/01/23 06:22:01;;;;;;;28.63;21.27;;;6.00;99.90;;;;;;10298433;28;20302;-74
2022/01/23 06:27:02;;;;;;;28.63;21.13;;;6.00;99.90;;;;;;10309532;28;20232;-75
2022/01/23 06:32:03;;;;;;;27.80;20.30;;;6.00;99.90;;;;;;10305050;28;20288;-74
2022/01/23 06:37:04;;;;;;;30.67;21.57;;;6.00;99.90;;;;;;10306958;28;20709;-75
2022/01/23 06:42:05;;;;;;;27.07;20.33;;;6.00;99.90;;;;;;10291886;28;20316;-74
2022/01/23 06:47:06;;;;;;;27.90;20.80;;;5.90;99.90;;;;;;10320597;28;20263;-74
2022/01/23 06:52:07;;;;;;;31.40;21.23;;;5.90;99.90;;;;;;10311179;28;20233;-76
2022/01/23 06:57:08;;;;;;;29.90;20.67;;;5.90;99.90;;;;;;10313998;28;20309;-76
2022/01/23 07:02:10;;;;;;;28.87;21.30;;;5.90;99.90;;;;;;10291475;28;20870;-74
2022/01/23 07:07:10;;;;;;;30.50;22.67;;;5.90;99.90;;;;;;10288391;28;20226;-75
2022/01/23 07:12:11;;;;;;;28.80;21.60;;;5.80;99.90;;;;;;10297956;28;20218;-75
2022/01/23 07:17:12;;;;;;;28.30;20.43;;;5.80;99.90;;;;;;10310246;28;20249;-75
2022/01/23 07:22:12;;;;;;;30.27;21.67;;;5.80;99.90;;;;;;10287675;28;20229;-74
2022/01/23 07:27:18;;;;;;;31.00;22.10;;;5.80;99.90;;;;;;10302653;28;20226;-75
2022/01/23 07:32:18;;;;;;;34.40;23.17;;;5.80;99.90;;;;;;10308976;28;20233;-75
2022/01/23 07:37:19;;;;;;;34.50;23.57;;;5.80;99.90;;;;;;10311210;28;20237;-75
2022/01/23 07:42:19;;;;;;;30.37;22.50;;;5.80;99.90;;;;;;10318297;28;20338;-74
2022/01/23 07:47:22;;;;;;;30.80;22.57;;;5.80;99.90;;;;;;10310471;28;20277;-74
2022/01/23 07:52:23;;;;;;;31.60;22.87;;;5.80;99.90;;;;;;10317131;28;20695;-75
2022/01/23 07:57:23;;;;;;;30.47;21.77;;;5.80;99.90;;;;;;10293453;28;20230;-74
2022/01/23 08:02:24;;;;;;;29.27;21.17;;;5.80;99.90;;;;;;10317924;28;20316;-75
2022/01/23 08:12:30;;;;;;;28.90;20.60;;;5.90;99.90;;;;;;10310332;28;20231;-75
2022/01/23 08:17:31;;;;;;;28.40;21.80;;;5.90;99.90;;;;;;10316937;28;20218;-74
2022/01/23 08:22:32;;;;;;;31.10;21.53;;;6.00;99.90;;;;;;10301126;28;20222;-74
2022/01/23 08:27:34;;;;;;;31.47;21.77;;;6.10;99.90;;;;;;10316195;28;20218;-75
2022/01/23 08:32:35;;;;;;;32.67;21.97;;;6.00;99.90;;;;;;10311033;28;20258;-75
2022/01/23 08:37:36;;;;;;;29.60;21.90;;;6.10;99.90;;;;;;10318320;28;20681;-75
2022/01/23 08:42:36;;;;;;;28.73;21.23;;;6.10;99.90;;;;;;10290380;28;20585;-76
2022/01/23 08:47:37;;;;;;;29.57;22.07;;;6.10;99.90;;;;;;10307978;28;20268;-74
2022/01/23 08:52:37;;;;;;;29.77;20.57;;;6.10;99.90;;;;;;10317886;28;20218;-75
2022/01/23 08:57:38;;;;;;;29.40;21.93;;;6.20;99.90;;;;;;10319151;28;20242;-75
2022/01/23 09:02:38;;;;;;;32.47;22.57;;;6.30;99.90;;;;;;10315744;28;20368;-75
2022/01/23 09:07:39;;;;;;;29.43;21.77;;;6.30;99.90;;;;;;10290025;28;20594;-74
2022/01/23 09:12:56;;;;;;;33.20;23.40;;;6.40;99.90;;;;;;10300930;28;20910;-75
2022/01/23 09:17:57;;;;;;;29.73;22.27;;;6.50;99.90;;;;;;10313214;28;20214;-76
2022/01/23 09:22:57;;;;;;;31.03;21.80;;;6.50;99.90;;;;;;10317118;28;20747;-75
2022/01/23 09:28:03;;;;;;;31.77;21.93;;;6.60;99.90;;;;;;10294999;28;20708;-74
2022/01/23 09:33:04;;;;;;;29.17;22.07;;;6.70;99.90;;;;;;10313368;28;20763;-74
2022/01/23 09:38:05;;;;;;;28.87;21.67;;;6.90;99.90;;;;;;10308002;28;20253;-75
2022/01/23 09:43:15;;;;;;;29.50;22.77;;;6.90;99.90;;;;;;10302258;28;20255;-75
2022/01/23 09:48:17;;;;;;;31.57;21.20;;;7.00;99.90;;;;;;10315433;28;20227;-75
2022/01/23 09:53:21;;;;;;;30.03;22.70;;;7.10;99.90;;;;;;10305156;28;20316;-74
2022/01/23 09:58:22;;;;;;;35.10;22.63;;;7.20;99.90;;;;;;10289247;28;20227;-74
2022/01/23 10:03:22;;;;;;;29.17;21.70;;;7.40;99.90;;;;;;10314013;28;20369;-75
2022/01/23 10:08:24;;;;;;;27.03;20.70;;;7.50;99.90;;;;;;10305690;28;20367;-75
2022/01/23 10:13:27;;;;;;;26.73;21.20;;;7.70;99.90;;;;;;10295343;28;20238;-75
2022/01/23 10:18:27;;;;;;;27.50;21.20;;;8.00;99.90;;;;;;10306081;28;20225;-74
2022/01/23 10:23:31;;;;;;;29.47;21.83;;;8.20;99.90;;;;;;10304209;28;20331;-74
2022/01/23 10:28:34;;;;;;;30.73;21.77;;;8.40;99.90;;;;;;10311315;28;20219;-75
2022/01/23 10:33:38;;;;;;;26.80;20.30;;;8.50;99.90;;;;;;10312477;28;20231;-75
2022/01/23 10:38:47;;;;;;;27.67;20.80;;;8.60;99.90;;;;;;10296315;28;20331;-75
2022/01/23 10:49:55;;;;;;;28.47;20.90;;;8.80;99.90;;;;;;10311997;28;20259;-75
2022/01/23 10:54:57;;;;;;;29.23;21.97;;;8.80;99.90;;;;;;10312811;28;20229;-76
2022/01/23 10:59:57;;;;;;;27.30;20.67;;;8.90;99.90;;;;;;10304431;28;20240;-76
2022/01/23 11:05:07;;;;;;;24.63;19.27;;;9.00;99.90;;;;;;10308086;28;20227;-74
2022/01/23 11:10:11;;;;;;;27.57;20.23;;;9.10;99.90;;;;;;10291201;28;20251;-75
2022/01/23 11:20:42;;;;;;;27.30;21.00;;;9.50;99.90;;;;;;10303980;28;20712;-76
2022/01/23 11:26:07;;;;;;;30.47;21.47;;;9.60;99.90;;;;;;10305451;28;20252;-76
2022/01/23 11:31:10;;;;;;;25.30;19.03;;;9.60;99.90;;;;;;10308609;28;20271;-75
2022/01/23 11:36:12;;;;;;;28.87;22.07;;;9.40;99.90;;;;;;10304248;28;20226;-76
2022/01/23 11:57:33;;;;;;;25.60;17.90;;;9.40;99.90;;;;;;10305657;28;20246;-75
2022/01/23 12:02:42;;;;;;;23.53;17.47;;;9.50;99.90;;;;;;10310692;28;20284;-76
2022/01/23 12:07:46;;;;;;;24.27;18.77;;;9.50;99.90;;;;;;10286913;28;20292;-75
2022/01/23 12:12:50;;;;;;;21.97;15.83;;;9.50;99.90;;;;;;10289815;28;20279;-75
2022/01/23 12:17:51;;;;;;;23.10;17.30;;;9.30;99.90;;;;;;10304827;28;20232;-76
2022/01/23 12:22:55;;;;;;;24.87;17.83;;;9.40;99.90;;;;;;10290970;28;20245;-75
2022/01/23 12:28:29;;;;;;;25.57;17.33;;;9.30;99.90;;;;;;10313889;28;20266;-74
2022/01/23 12:33:53;;;;;;;23.00;17.67;;;9.30;99.90;;;;;;10300213;28;20727;-75
2022/01/23 12:38:57;;;;;;;21.23;15.97;;;9.50;99.90;;;;;;10296015;28;20241;-75
2022/01/23 12:44:08;;;;;;;19.57;15.03;;;9.50;99.90;;;;;;10311682;28;20713;-75
2022/01/23 12:49:29;;;;;;;20.03;14.97;;;9.20;99.90;;;;;;10312831;28;20579;-75
2022/01/23 12:54:31;;;;;;;16.33;12.70;;;9.20;99.90;;;;;;10308985;28;20578;-76
2022/01/23 12:59:34;;;;;;;18.40;12.97;;;9.20;99.90;;;;;;10306725;28;20519;-76
2022/01/23 13:04:39;;;;;;;15.80;11.17;;;9.20;99.90;;;;;;10292220;28;20236;-75
2022/01/23 13:09:48;;;;;;;15.77;11.27;;;9.10;99.90;;;;;;10312985;28;20225;-75
2022/01/23 13:31:01;;;;;;;17.17;11.77;;;9.00;99.90;;;;;;10308715;28;20609;-76
2022/01/23 13:36:07;;;;;;;17.67;10.60;;;8.80;99.90;;;;;;10313005;28;20300;-75
2022/01/23 13:41:21;;;;;;;24.40;14.30;;;8.70;99.90;;;;;;10310791;28;20224;-77
2022/01/23 13:52:11;;;;;;;16.23;12.07;;;8.40;99.90;;;;;;10309651;28;20234;-75
2022/01/23 13:57:42;;;;;;;17.53;12.10;;;8.20;99.90;;;;;;10285397;28;20871;-76
2022/01/23 14:02:46;;;;;;;18.17;13.03;;;8.00;99.90;;;;;;10308872;28;20224;-79
2022/01/23 14:07:53;;;;;;;18.00;12.33;;;7.90;99.90;;;;;;10287795;28;20232;-76
2022/01/23 14:13:03;;;;;;;15.53;11.03;;;7.80;99.90;;;;;;10308624;28;20663;-77
2022/01/23 14:18:11;;;;;;;13.30;9.90;;;7.70;99.90;;;;;;10292330;28;20441;-76
2022/01/23 14:23:20;;;;;;;15.30;10.87;;;7.60;99.90;;;;;;10295083;28;20636;-77
2022/01/23 14:28:24;;;;;;;16.57;10.47;;;7.60;99.90;;;;;;10306426;28;20980;-75
2022/01/23 14:33:29;;;;;;;14.57;9.83;;;7.60;99.90;;;;;;10321362;28;20281;-75
2022/01/23 14:38:30;;;;;;;14.53;8.27;;;7.60;99.90;;;;;;10306998;28;20214;-77
2022/01/23 14:43:34;;;;;;;13.20;8.07;;;7.60;99.90;;;;;;10312703;28;20665;-75
2022/01/23 14:48:40;;;;;;;14.40;8.87;;;7.60;99.90;;;;;;10308191;28;20219;-75
2022/01/23 14:53:40;;;;;;;9.90;8.20;;;7.70;99.90;;;;;;10300941;28;20224;-75
2022/01/23 14:58:43;;;;;;;11.23;8.00;;;7.60;99.90;;;;;;10298384;28;20230;-76
2022/01/23 15:03:48;;;;;;;9.93;7.10;;;7.70;99.90;;;;;;10314765;28;20635;-75
2022/01/23 15:08:49;;;;;;;9.63;6.70;;;7.70;99.90;;;;;;10309917;28;20279;-76
2022/01/23 15:13:49;;;;;;;12.17;7.23;;;7.70;99.90;;;;;;10295834;28;20643;-76
2022/01/23 15:18:50;;;;;;;10.37;6.53;;;7.70;99.90;;;;;;10313471;28;20290;-75
2022/01/23 15:23:55;;;;;;;10.83;6.80;;;7.60;99.90;;;;;;10304546;28;20235;-75
2022/01/23 15:28:56;;;;;;;10.40;6.57;;;7.50;99.90;;;;;;10302848;28;20232;-75
2022/01/23 15:33:57;;;;;;;8.33;4.53;;;7.50;99.90;;;;;;10290412;28;20229;-76
2022/01/23 15:38:58;;;;;;;4.57;3.87;;;7.50;99.90;;;;;;10298169;28;20228;-75
2022/01/23 15:43:58;;;;;;;4.00;3.10;;;7.40;99.90;;;;;;10306909;28;20226;-74
2022/01/23 15:48:59;;;;;;;4.07;3.50;;;7.40;99.90;;;;;;10307528;28;20222;-76
2022/01/23 15:54:00;;;;;;;4.67;3.23;;;7.30;99.90;;;;;;10309239;28;20235;-78
2022/01/23 15:59:00;;;;;;;4.57;3.27;;;7.30;99.90;;;;;;10308103;28;20226;-75
2022/01/23 16:04:02;;;;;;;3.83;2.87;;;7.30;99.90;;;;;;10320347;28;20317;-78
2022/01/23 16:09:03;;;;;;;8.63;3.90;;;7.30;99.90;;;;;;10303026;28;20227;-77
2022/01/23 16:14:04;;;;;;;8.53;4.13;;;7.30;99.90;;;;;;10316634;28;20792;-76
2022/01/23 16:19:04;;;;;;;4.93;3.40;;;7.30;99.90;;;;;;10306395;28;20228;-77
2022/01/23 16:24:05;;;;;;;5.13;3.00;;;7.20;99.90;;;;;;10322578;28;20225;-75
2022/01/23 16:29:06;;;;;;;4.47;3.50;;;7.20;99.90;;;;;;10295759;28;20226;-75
2022/01/23 16:34:08;;;;;;;3.57;3.10;;;7.20;99.90;;;;;;10301395;28;20242;-75
2022/01/23 16:39:09;;;;;;;5.57;3.40;;;7.10;99.90;;;;;;10304126;28;20249;-75
2022/01/23 16:44:12;;;;;;;8.37;3.60;;;7.10;99.90;;;;;;10322981;28;20230;-75
2022/01/23 16:49:12;;;;;;;3.87;3.30;;;7.10;99.90;;;;;;10301769;28;20222;-74
2022/01/23 16:54:16;;;;;;;4.60;3.80;;;7.10;99.90;;;;;;10319385;28;20233;-76
2022/01/23 16:59:17;;;;;;;7.97;4.47;;;7.10;99.90;;;;;;10336440;28;20240;-75
2022/01/23 17:04:18;;;;;;;4.90;3.83;;;7.10;99.90;;;;;;10304891;28;20312;-76
2022/01/23 17:09:19;;;;;;;5.83;3.60;;;7.10;99.90;;;;;;10331586;28;20241;-75
2022/01/23 17:14:20;;;;;;;4.50;3.60;;;7.10;99.90;;;;;;10315120;28;20223;-75
2022/01/23 17:19:20;;;;;;;4.97;3.57;;;7.00;99.90;;;;;;10318117;28;20220;-75
2022/01/23 17:24:21;;;;;;;5.70;3.90;;;7.00;99.90;;;;;;10311244;28;20339;-75
2022/01/23 17:29:22;;;;;;;5.97;4.17;;;7.00;99.90;;;;;;10333474;28;20305;-75
2022/01/23 17:34:23;;;;;;;6.83;4.03;;;7.00;99.90;;;;;;10305283;28;20272;-75
2022/01/23 17:39:23;;;;;;;5.17;3.90;;;7.00;99.90;;;;;;10301703;28;20272;-76
2022/01/23 17:44:27;;;;;;;7.90;4.30;;;7.00;99.90;;;;;;10308434;28;20225;-75
2022/01/23 17:49:39;;;;;;;5.10;4.20;;;7.00;99.90;;;;;;10303944;28;20223;-73
2022/01/23 17:54:40;;;;;;;11.40;4.17;;;6.90;99.90;;;;;;10295408;28;20225;-75
2022/01/23 17:59:40;;;;;;;7.97;3.97;;;6.90;99.90;;;;;;10301134;28;20219;-75
2022/01/23 18:04:42;;;;;;;4.67;3.90;;;6.90;99.90;;;;;;10312558;28;20324;-75
2022/01/23 18:09:43;;;;;;;4.03;3.53;;;6.90;99.90;;;;;;10308538;28;20687;-75
2022/01/23 18:14:48;;;;;;;5.30;4.10;;;6.90;99.90;;;;;;10293313;28;20491;-76
2022/01/23 18:19:51;;;;;;;5.77;4.50;;;6.80;99.90;;;;;;10306795;28;20229;-75
2022/01/23 18:24:52;;;;;;;7.17;4.83;;;6.80;99.90;;;;;;10318654;28;20233;-75
2022/01/23 18:29:53;;;;;;;5.07;3.90;;;6.80;99.90;;;;;;10306335;28;20221;-74
2022/01/23 18:34:54;;;;;;;5.77;3.87;;;6.80;99.90;;;;;;10326197;28;20309;-77
2022/01/23 18:39:55;;;;;;;5.27;4.10;;;6.80;99.90;;;;;;10304458;28;20277;-77
2022/01/23 18:44:56;;;;;;;8.80;4.03;;;6.80;99.90;;;;;;10322462;28;20215;-77
2022/01/23 18:50:09;;;;;;;4.67;3.70;;;6.80;99.90;;;;;;10322601;28;20268;-77
2022/01/23 18:55:14;;;;;;;5.77;3.60;;;6.80;99.90;;;;;;10306440;28;20260;-76
2022/01/23 19:00:15;;;;;;;3.77;3.17;;;6.70;99.90;;;;;;10303591;28;20201;-75
2022/01/23 19:05:25;;;;;;;3.27;2.93;;;6.70;99.90;;;;;;10325145;28;20190;-76
2022/01/23 19:10:33;;;;;;;5.60;3.33;;;6.70;99.90;;;;;;10300772;28;20265;-75
2022/01/23 19:15:34;;;;;;;5.30;2.90;;;6.70;99.90;;;;;;10297933;28;20268;-74
2022/01/23 19:20:35;;;;;;;3.57;2.77;;;6.70;99.90;;;;;;10316480;28;20253;-75
2022/01/23 19:25:36;;;;;;;4.43;2.80;;;6.70;99.90;;;;;;10300621;28;20222;-75
2022/01/23 19:30:38;;;;;;;4.43;2.63;;;6.70;99.90;;;;;;10295824;28;20372;-75
2022/01/23 19:35:39;;;;;;;2.73;2.53;;;6.60;99.90;;;;;;10304663;28;20253;-74
2022/01/23 19:40:52;;;;;;;5.03;3.07;;;6.60;99.90;;;;;;10312012;28;20218;-76
2022/01/23 19:45:56;;;;;;;4.17;3.00;;;6.60;99.90;;;;;;10320611;28;20218;-75
2022/01/23 19:50:57;;;;;;;3.30;3.00;;;6.60;99.90;;;;;;10307472;28;20229;-75
2022/01/23 19:55:58;;;;;;;3.70;2.97;;;6.60;99.90;;;;;;10324827;28;20226;-76
2022/01/23 20:00:58;;;;;;;3.53;2.83;;;6.60;99.90;;;;;;10318895;28;20221;-76
2022/01/23 20:06:02;;;;;;;3.30;2.87;;;6.50;99.90;;;;;;10323958;28;20221;-76
2022/01/23 20:16:12;;;;;;;5.40;3.30;;;6.40;99.90;;;;;;10333036;28;20244;-76
2022/01/23 20:21:14;;;;;;;4.83;3.30;;;6.30;99.90;;;;;;10319031;28;20347;-75
2022/01/23 20:26:15;;;;;;;3.77;3.17;;;6.30;99.90;;;;;;10307798;28;20230;-76
2022/01/23 20:31:15;;;;;;;4.17;3.40;;;6.30;99.90;;;;;;10324955;28;20225;-74
2022/01/23 20:36:20;;;;;;;4.60;3.60;;;6.20;99.90;;;;;;10321457;28;20690;-78
2022/01/23 20:46:22;;;;;;;4.73;3.17;;;6.30;99.90;;;;;;10335386;28;20281;-75
2022/01/23 20:51:33;;;;;;;3.87;3.30;;;6.30;99.90;;;;;;10310677;28;20359;-76
2022/01/23 20:56:33;;;;;;;3.70;3.30;;;6.30;99.90;;;;;;10300202;28;20240;-73
2022/01/23 21:01:34;;;;;;;4.23;2.87;;;6.20;99.90;;;;;;10312536;28;20228;-73
2022/01/23 21:06:37;;;;;;;3.20;2.90;;;6.20;99.90;;;;;;10320348;28;20237;-75
2022/01/23 21:11:38;;;;;;;5.10;3.10;;;6.10;99.90;;;;;;10318419;28;20741;-76
2022/01/23 21:17:39;;;;;;;3.57;2.77;;;6.10;99.90;;;;;;10310212;28;20221;-77
2022/01/23 21:43:13;;;;;;;2.50;2.27;;;5.80;99.90;;;;;;10334357;28;20214;-75
2022/01/23 21:48:14;;;;;;;2.93;2.10;;;5.90;99.90;;;;;;10335272;28;20225;-73
2022/01/23 21:53:16;;;;;;;4.90;2.23;;;5.90;99.90;;;;;;10335290;28;20229;-76
2022/01/23 21:58:17;;;;;;;5.13;2.00;;;5.90;99.90;;;;;;10316596;28;20237;-75
2022/01/23 22:03:17;;;;;;;2.70;2.20;;;5.90;99.90;;;;;;10331827;28;20657;-74
2022/01/23 22:08:21;;;;;;;2.80;2.50;;;5.90;99.90;;;;;;10336028;28;20229;-75
2022/01/23 22:15:56;;;;;;;2.83;2.20;;;5.80;99.90;;;;;;10317783;28;20751;-77
2022/01/23 22:18:46;;;;;;;2.73;2.10;;;5.70;99.90;;;;;;10317343;28;20669;-74
2022/01/23 22:28:48;;;;;;;3.80;1.80;;;5.60;99.90;;;;;;10330024;28;20941;-72
2022/01/23 22:33:49;;;;;;;3.13;2.60;;;5.60;99.90;;;;;;10312732;28;20237;-75
2022/01/23 22:38:51;;;;;;;2.80;2.03;;;5.60;99.90;;;;;;10324475;28;20329;-73
2022/01/23 22:43:59;;;;;;;2.47;2.07;;;5.60;99.90;;;;;;10324938;28;20253;-74
2022/01/23 22:49:11;;;;;;;3.80;2.10;;;5.60;99.90;;;;;;10320995;28;20241;-75
2022/01/23 22:54:14;;;;;;;3.70;1.97;;;5.70;99.90;;;;;;10327144;28;20325;-71
2022/01/23 22:59:14;;;;;;;3.70;2.47;;;5.70;99.90;;;;;;10307728;28;20603;-74
2022/01/23 23:04:15;;;;;;;2.17;1.80;;;5.80;99.90;;;;;;10311935;28;20220;-75
2022/01/23 23:09:15;;;;;;;3.00;2.23;;;5.80;99.90;;;;;;10325262;28;20225;-73
2022/01/23 23:14:19;;;;;;;2.97;2.13;;;5.80;99.90;;;;;;10329133;28;20236;-74
2022/01/23 23:19:23;;;;;;;2.30;2.10;;;5.90;99.90;;;;;;10325052;28;20218;-75
2022/01/23 23:24:27;;;;;;;2.80;1.97;;;6.00;99.90;;;;;;10327216;28;20218;-74
2022/01/23 23:29:28;;;;;;;3.30;2.40;;;6.00;99.90;;;;;;10311248;28;20320;-75
2022/01/23 23:34:30;;;;;;;4.60;2.50;;;6.00;99.90;;;;;;10311496;28;20475;-73
2022/01/23 23:44:41;;;;;;;5.87;3.43;;;6.00;99.90;;;;;;10328600;28;20222;-74
2022/01/23 23:49:44;;;;;;;11.27;5.37;;;6.00;99.90;;;;;;10297437;28;20754;-73
2022/01/23 23:54:44;;;;;;;13.90;6.43;;;6.10;99.90;;;;;;10319406;28;20244;-72
2022/01/23 23:59:45;;;;;;;15.07;7.67;;;6.10;99.90;;;;;;10295914;28;20240;-72
